sensor_id;sensor_type;location;lat;lon;timestamp;P1;durP1;ratioP1;P2;durP2;ratioP2
1262;SDS011;62267;50.112;8.704;2023-06-10T00:00:45;14.97;;;13.67;;
1262;SDS011;62267;50.112;8.704;2023-06-10T00:03:13;15.10;;;13.70;;
1262;SDS011;62267;50.112;8.704;2023-06-10T00:05:42;14.43;;;13.23;;
1262;SDS011;62267;50.112;8.704;2023-06-10T00:08:09;15.37;;;13.90;;
1262;SDS011;62267;50.112;8.704;2023-06-10T00:10:38;15.10;;;13.60;;
1262;SDS011;62267;50.112;8.704;2023-06-10T00:13:06;15.47;;;13.87;;
1262;SDS011;62267;50.112;8.704;2023-06-10T00:15:37;14.37;;;12.97;;
1262;SDS011;62267;50.112;8.704;2023-06-10T00:18:06;15.43;;;14.00;;
1262;SDS011;62267;50.112;8.704;2023-06-10T00:20:36;15.13;;;13.17;;
1262;SDS011;62267;50.112;8.704;2023-06-10T00:23:07;15.70;;;14.20;;
1262;SDS011;62267;50.112;8.704;2023-06-10T00:25:35;14.60;;;13.30;;
1262;SDS011;62267;50.112;8.704;2023-06-10T00:28:02;14.80;;;13.60;;
1262;SDS011;62267;50.112;8.704;2023-06-10T00:30:29;14.20;;;12.93;;
1262;SDS011;62267;50.112;8.704;2023-06-10T00:32:56;14.57;;;13.07;;
1262;SDS011;62267;50.112;8.704;2023-06-10T00:35:25;16.77;;;15.37;;
1262;SDS011;62267;50.112;8.704;2023-06-10T00:37:53;14.80;;;13.40;;
1262;SDS011;62267;50.112;8.704;2023-06-10T00:40:20;14.93;;;13.60;;
1262;SDS011;62267;50.112;8.704;2023-06-10T00:42:47;14.37;;;13.07;;
1262;SDS011;62267;50.112;8.704;2023-06-10T00:45:15;14.93;;;13.23;;
1262;SDS011;62267;50.112;8.704;2023-06-10T00:47:42;16.97;;;14.97;;
1262;SDS011;62267;50.112;8.704;2023-06-10T00:50:10;13.20;;;12.10;;
1262;SDS011;62267;50.112;8.704;2023-06-10T00:52:38;14.87;;;13.60;;
1262;SDS011;62267;50.112;8.704;2023-06-10T00:55:07;13.80;;;12.50;;
1262;SDS011;62267;50.112;8.704;2023-06-10T00:57:36;14.27;;;13.07;;
1262;SDS011;62267;50.112;8.704;2023-06-10T01:00:04;14.00;;;12.80;;
1262;SDS011;62267;50.112;8.704;2023-06-10T01:02:34;14.70;;;13.40;;
1262;SDS011;62267;50.112;8.704;2023-06-10T01:05:02;13.73;;;12.63;;
1262;SDS011;62267;50.112;8.704;2023-06-10T01:10:05;14.73;;;12.40;;
1262;SDS011;62267;50.112;8.704;2023-06-10T01:12:34;12.50;;;11.40;;
1262;SDS011;62267;50.112;8.704;2023-06-10T01:15:05;14.30;;;12.90;;
1262;SDS011;62267;50.112;8.704;2023-06-10T01:17:36;13.40;;;12.27;;
1262;SDS011;62267;50.112;8.704;2023-06-10T01:20:05;13.37;;;12.30;;
1262;SDS011;62267;50.112;8.704;2023-06-10T01:22:38;14.33;;;13.23;;
1262;SDS011;62267;50.112;8.704;2023-06-10T01:25:06;13.90;;;12.50;;
1262;SDS011;62267;50.112;8.704;2023-06-10T01:27:35;13.67;;;12.40;;
1262;SDS011;62267;50.112;8.704;2023-06-10T01:30:15;13.93;;;12.63;;
1262;SDS011;62267;50.112;8.704;2023-06-10T01:32:45;14.17;;;12.90;;
1262;SDS011;62267;50.112;8.704;2023-06-10T01:35:14;14.73;;;13.17;;
1262;SDS011;62267;50.112;8.704;2023-06-10T01:37:45;14.17;;;12.80;;
1262;SDS011;62267;50.112;8.704;2023-06-10T01:40:13;13.37;;;12.17;;
1262;SDS011;62267;50.112;8.704;2023-06-10T01:42:41;15.27;;;13.87;;
1262;SDS011;62267;50.112;8.704;2023-06-10T01:45:11;14.57;;;13.37;;
1262;SDS011;62267;50.112;8.704;2023-06-10T01:47:38;16.23;;;14.27;;
1262;SDS011;62267;50.112;8.704;2023-06-10T01:50:06;14.33;;;13.03;;
1262;SDS011;62267;50.112;8.704;2023-06-10T01:52:35;13.30;;;12.10;;
1262;SDS011;62267;50.112;8.704;2023-06-10T01:55:04;13.53;;;12.27;;
1262;SDS011;62267;50.112;8.704;2023-06-10T01:57:32;14.57;;;13.23;;
1262;SDS011;62267;50.112;8.704;2023-06-10T02:00:00;15.63;;;14.20;;
1262;SDS011;62267;50.112;8.704;2023-06-10T02:02:28;15.13;;;13.00;;
1262;SDS011;62267;50.112;8.704;2023-06-10T02:04:55;14.20;;;13.00;;
1262;SDS011;62267;50.112;8.704;2023-06-10T02:07:23;15.27;;;13.87;;
1262;SDS011;62267;50.112;8.704;2023-06-10T02:09:51;14.47;;;13.17;;
1262;SDS011;62267;50.112;8.704;2023-06-10T02:12:19;13.80;;;12.10;;
1262;SDS011;62267;50.112;8.704;2023-06-10T02:14:47;14.03;;;12.83;;
1262;SDS011;62267;50.112;8.704;2023-06-10T02:17:14;12.67;;;11.47;;
1262;SDS011;62267;50.112;8.704;2023-06-10T02:19:41;14.07;;;12.70;;
1262;SDS011;62267;50.112;8.704;2023-06-10T02:22:09;13.80;;;12.60;;
1262;SDS011;62267;50.112;8.704;2023-06-10T02:24:37;13.77;;;12.67;;
1262;SDS011;62267;50.112;8.704;2023-06-10T02:27:05;13.17;;;12.10;;
1262;SDS011;62267;50.112;8.704;2023-06-10T02:29:36;13.27;;;12.07;;
1262;SDS011;62267;50.112;8.704;2023-06-10T02:32:03;13.00;;;11.80;;
1262;SDS011;62267;50.112;8.704;2023-06-10T02:34:35;14.13;;;12.80;;
1262;SDS011;62267;50.112;8.704;2023-06-10T02:37:04;14.63;;;13.03;;
1262;SDS011;62267;50.112;8.704;2023-06-10T02:39:31;13.23;;;12.00;;
1262;SDS011;62267;50.112;8.704;2023-06-10T02:42:01;13.67;;;12.37;;
1262;SDS011;62267;50.112;8.704;2023-06-10T02:44:29;12.73;;;11.73;;
1262;SDS011;62267;50.112;8.704;2023-06-10T02:46:57;13.17;;;12.10;;
1262;SDS011;62267;50.112;8.704;2023-06-10T02:49:25;13.60;;;12.20;;
1262;SDS011;62267;50.112;8.704;2023-06-10T02:51:56;13.17;;;11.70;;
1262;SDS011;62267;50.112;8.704;2023-06-10T02:54:24;12.97;;;11.87;;
1262;SDS011;62267;50.112;8.704;2023-06-10T02:56:53;13.00;;;11.70;;
1262;SDS011;62267;50.112;8.704;2023-06-10T02:59:25;12.63;;;11.53;;
1262;SDS011;62267;50.112;8.704;2023-06-10T03:01:53;13.20;;;12.00;;
1262;SDS011;62267;50.112;8.704;2023-06-10T03:04:22;14.40;;;13.07;;
1262;SDS011;62267;50.112;8.704;2023-06-10T03:06:59;14.10;;;12.90;;
1262;SDS011;62267;50.112;8.704;2023-06-10T03:09:32;13.17;;;12.07;;
1262;SDS011;62267;50.112;8.704;2023-06-10T03:12:02;13.00;;;11.90;;
1262;SDS011;62267;50.112;8.704;2023-06-10T03:14:34;14.70;;;13.40;;
1262;SDS011;62267;50.112;8.704;2023-06-10T03:17:03;15.00;;;12.80;;
1262;SDS011;62267;50.112;8.704;2023-06-10T03:19:32;13.27;;;12.20;;
1262;SDS011;62267;50.112;8.704;2023-06-10T03:22:07;13.30;;;12.00;;
1262;SDS011;62267;50.112;8.704;2023-06-10T03:24:38;13.10;;;11.90;;
1262;SDS011;62267;50.112;8.704;2023-06-10T03:27:09;13.73;;;12.33;;
1262;SDS011;62267;50.112;8.704;2023-06-10T03:29:39;13.73;;;12.57;;
1262;SDS011;62267;50.112;8.704;2023-06-10T03:32:07;14.60;;;13.30;;
1262;SDS011;62267;50.112;8.704;2023-06-10T03:34:38;13.00;;;11.80;;
1262;SDS011;62267;50.112;8.704;2023-06-10T03:37:05;13.47;;;12.37;;
1262;SDS011;62267;50.112;8.704;2023-06-10T03:39:33;13.17;;;11.77;;
1262;SDS011;62267;50.112;8.704;2023-06-10T03:42:01;13.00;;;11.93;;
1262;SDS011;62267;50.112;8.704;2023-06-10T03:44:31;12.83;;;11.57;;
1262;SDS011;62267;50.112;8.704;2023-06-10T03:46:58;12.73;;;11.53;;
1262;SDS011;62267;50.112;8.704;2023-06-10T03:49:26;14.23;;;12.93;;
1262;SDS011;62267;50.112;8.704;2023-06-10T03:51:59;14.77;;;13.03;;
1262;SDS011;62267;50.112;8.704;2023-06-10T03:54:29;14.00;;;12.67;;
1262;SDS011;62267;50.112;8.704;2023-06-10T03:56:58;14.37;;;12.97;;
1262;SDS011;62267;50.112;8.704;2023-06-10T03:59:26;11.50;;;10.50;;
1262;SDS011;62267;50.112;8.704;2023-06-10T04:01:55;13.27;;;12.17;;
1262;SDS011;62267;50.112;8.704;2023-06-10T04:04:22;14.13;;;12.70;;
1262;SDS011;62267;50.112;8.704;2023-06-10T04:06:50;13.17;;;11.80;;
1262;SDS011;62267;50.112;8.704;2023-06-10T04:09:18;13.00;;;11.90;;
1262;SDS011;62267;50.112;8.704;2023-06-10T04:11:46;13.63;;;12.23;;
1262;SDS011;62267;50.112;8.704;2023-06-10T04:14:14;13.37;;;12.17;;
1262;SDS011;62267;50.112;8.704;2023-06-10T04:16:42;12.80;;;11.80;;
1262;SDS011;62267;50.112;8.704;2023-06-10T04:19:11;12.67;;;11.47;;
1262;SDS011;62267;50.112;8.704;2023-06-10T04:21:39;15.03;;;13.30;;
1262;SDS011;62267;50.112;8.704;2023-06-10T04:24:07;13.77;;;12.47;;
1262;SDS011;62267;50.112;8.704;2023-06-10T04:26:35;12.77;;;11.47;;
1262;SDS011;62267;50.112;8.704;2023-06-10T04:29:03;12.80;;;11.70;;
1262;SDS011;62267;50.112;8.704;2023-06-10T04:31:31;12.70;;;11.17;;
1262;SDS011;62267;50.112;8.704;2023-06-10T04:33:59;15.23;;;12.73;;
1262;SDS011;62267;50.112;8.704;2023-06-10T04:36:29;12.23;;;11.03;;
1262;SDS011;62267;50.112;8.704;2023-06-10T04:38:56;13.10;;;11.77;;
1262;SDS011;62267;50.112;8.704;2023-06-10T04:41:26;12.07;;;10.97;;
1262;SDS011;62267;50.112;8.704;2023-06-10T04:43:54;15.77;;;12.03;;
1262;SDS011;62267;50.112;8.704;2023-06-10T04:46:22;11.40;;;10.37;;
1262;SDS011;62267;50.112;8.704;2023-06-10T04:48:49;11.67;;;10.47;;
1262;SDS011;62267;50.112;8.704;2023-06-10T04:51:20;12.17;;;10.97;;
1262;SDS011;62267;50.112;8.704;2023-06-10T04:53:47;11.77;;;10.63;;
1262;SDS011;62267;50.112;8.704;2023-06-10T04:56:15;12.07;;;10.87;;
1262;SDS011;62267;50.112;8.704;2023-06-10T04:58:43;10.57;;;9.63;;
1262;SDS011;62267;50.112;8.704;2023-06-10T05:01:11;12.40;;;11.10;;
1262;SDS011;62267;50.112;8.704;2023-06-10T05:03:38;10.50;;;9.50;;
1262;SDS011;62267;50.112;8.704;2023-06-10T05:06:05;12.47;;;11.33;;
1262;SDS011;62267;50.112;8.704;2023-06-10T05:08:33;10.40;;;9.50;;
1262;SDS011;62267;50.112;8.704;2023-06-10T05:11:00;12.57;;;11.33;;
1262;SDS011;62267;50.112;8.704;2023-06-10T05:13:28;11.97;;;10.90;;
1262;SDS011;62267;50.112;8.704;2023-06-10T05:15:56;11.17;;;10.07;;
1262;SDS011;62267;50.112;8.704;2023-06-10T05:18:24;11.70;;;10.50;;
1262;SDS011;62267;50.112;8.704;2023-06-10T05:20:52;13.53;;;12.33;;
1262;SDS011;62267;50.112;8.704;2023-06-10T05:23:20;11.20;;;10.20;;
1262;SDS011;62267;50.112;8.704;2023-06-10T05:25:48;10.93;;;9.83;;
1262;SDS011;62267;50.112;8.704;2023-06-10T05:28:16;11.70;;;10.60;;
1262;SDS011;62267;50.112;8.704;2023-06-10T05:30:45;11.47;;;10.37;;
1262;SDS011;62267;50.112;8.704;2023-06-10T05:33:13;11.00;;;10.10;;
1262;SDS011;62267;50.112;8.704;2023-06-10T05:35:41;10.53;;;9.50;;
1262;SDS011;62267;50.112;8.704;2023-06-10T05:38:08;12.03;;;10.87;;
1262;SDS011;62267;50.112;8.704;2023-06-10T05:40:36;11.30;;;10.20;;
1262;SDS011;62267;50.112;8.704;2023-06-10T05:43:03;12.07;;;11.07;;
1262;SDS011;62267;50.112;8.704;2023-06-10T05:45:31;11.43;;;10.37;;
1262;SDS011;62267;50.112;8.704;2023-06-10T05:47:58;11.80;;;10.70;;
1262;SDS011;62267;50.112;8.704;2023-06-10T05:50:26;11.70;;;10.10;;
1262;SDS011;62267;50.112;8.704;2023-06-10T05:52:54;11.47;;;10.47;;
1262;SDS011;62267;50.112;8.704;2023-06-10T05:55:23;11.00;;;10.00;;
1262;SDS011;62267;50.112;8.704;2023-06-10T05:57:57;12.77;;;10.67;;
1262;SDS011;62267;50.112;8.704;2023-06-10T06:00:26;10.87;;;9.77;;
1262;SDS011;62267;50.112;8.704;2023-06-10T06:02:53;10.73;;;9.83;;
1262;SDS011;62267;50.112;8.704;2023-06-10T06:05:22;12.50;;;11.20;;
1262;SDS011;62267;50.112;8.704;2023-06-10T06:07:49;11.60;;;10.40;;
1262;SDS011;62267;50.112;8.704;2023-06-10T06:10:17;11.57;;;10.37;;
1262;SDS011;62267;50.112;8.704;2023-06-10T06:12:45;11.10;;;10.00;;
1262;SDS011;62267;50.112;8.704;2023-06-10T06:15:12;12.07;;;10.70;;
1262;SDS011;62267;50.112;8.704;2023-06-10T06:17:40;12.23;;;11.00;;
1262;SDS011;62267;50.112;8.704;2023-06-10T06:20:07;11.80;;;10.70;;
1262;SDS011;62267;50.112;8.704;2023-06-10T06:22:35;11.80;;;10.90;;
1262;SDS011;62267;50.112;8.704;2023-06-10T06:25:03;12.47;;;11.27;;
1262;SDS011;62267;50.112;8.704;2023-06-10T06:27:30;11.73;;;10.53;;
1262;SDS011;62267;50.112;8.704;2023-06-10T06:29:58;12.27;;;10.97;;
1262;SDS011;62267;50.112;8.704;2023-06-10T06:32:27;10.87;;;9.90;;
1262;SDS011;62267;50.112;8.704;2023-06-10T06:34:55;10.97;;;9.97;;
1262;SDS011;62267;50.112;8.704;2023-06-10T06:37:22;11.93;;;10.90;;
1262;SDS011;62267;50.112;8.704;2023-06-10T06:40:03;11.60;;;10.60;;
1262;SDS011;62267;50.112;8.704;2023-06-10T06:42:32;10.83;;;9.80;;
1262;SDS011;62267;50.112;8.704;2023-06-10T06:45:08;12.67;;;11.53;;
1262;SDS011;62267;50.112;8.704;2023-06-10T06:47:37;11.53;;;10.53;;
1262;SDS011;62267;50.112;8.704;2023-06-10T06:50:05;11.40;;;10.40;;
1262;SDS011;62267;50.112;8.704;2023-06-10T06:52:33;12.10;;;11.00;;
1262;SDS011;62267;50.112;8.704;2023-06-10T06:55:00;11.80;;;10.80;;
1262;SDS011;62267;50.112;8.704;2023-06-10T06:57:28;12.70;;;11.50;;
1262;SDS011;62267;50.112;8.704;2023-06-10T06:59:56;12.27;;;11.03;;
1262;SDS011;62267;50.112;8.704;2023-06-10T07:02:23;13.10;;;11.73;;
1262;SDS011;62267;50.112;8.704;2023-06-10T07:04:52;11.27;;;10.33;;
1262;SDS011;62267;50.112;8.704;2023-06-10T07:07:22;13.10;;;11.80;;
1262;SDS011;62267;50.112;8.704;2023-06-10T07:09:49;11.43;;;10.53;;
1262;SDS011;62267;50.112;8.704;2023-06-10T07:12:18;12.50;;;11.50;;
1262;SDS011;62267;50.112;8.704;2023-06-10T07:14:48;11.77;;;10.83;;
1262;SDS011;62267;50.112;8.704;2023-06-10T07:17:16;12.00;;;11.03;;
1262;SDS011;62267;50.112;8.704;2023-06-10T07:19:45;11.80;;;10.90;;
1262;SDS011;62267;50.112;8.704;2023-06-10T07:22:13;11.80;;;10.80;;
1262;SDS011;62267;50.112;8.704;2023-06-10T07:24:41;11.40;;;10.50;;
1262;SDS011;62267;50.112;8.704;2023-06-10T07:27:08;12.87;;;11.53;;
1262;SDS011;62267;50.112;8.704;2023-06-10T07:29:36;11.60;;;10.57;;
1262;SDS011;62267;50.112;8.704;2023-06-10T07:32:03;12.20;;;11.00;;
1262;SDS011;62267;50.112;8.704;2023-06-10T07:34:31;11.80;;;10.83;;
1262;SDS011;62267;50.112;8.704;2023-06-10T07:36:58;13.67;;;11.73;;
1262;SDS011;62267;50.112;8.704;2023-06-10T07:39:26;13.37;;;12.17;;
1262;SDS011;62267;50.112;8.704;2023-06-10T07:41:53;14.17;;;12.70;;
1262;SDS011;62267;50.112;8.704;2023-06-10T07:44:25;12.40;;;11.17;;
1262;SDS011;62267;50.112;8.704;2023-06-10T07:46:52;13.80;;;12.40;;
1262;SDS011;62267;50.112;8.704;2023-06-10T07:49:19;11.87;;;10.70;;
1262;SDS011;62267;50.112;8.704;2023-06-10T07:51:47;12.30;;;11.10;;
1262;SDS011;62267;50.112;8.704;2023-06-10T07:54:15;13.07;;;11.97;;
1262;SDS011;62267;50.112;8.704;2023-06-10T07:56:43;12.20;;;11.10;;
1262;SDS011;62267;50.112;8.704;2023-06-10T07:59:10;12.87;;;11.40;;
1262;SDS011;62267;50.112;8.704;2023-06-10T08:01:39;12.33;;;11.30;;
1262;SDS011;62267;50.112;8.704;2023-06-10T08:04:06;13.20;;;12.03;;
1262;SDS011;62267;50.112;8.704;2023-06-10T08:06:35;12.50;;;11.40;;
1262;SDS011;62267;50.112;8.704;2023-06-10T08:09:03;12.97;;;11.87;;
1262;SDS011;62267;50.112;8.704;2023-06-10T08:11:30;14.60;;;13.20;;
1262;SDS011;62267;50.112;8.704;2023-06-10T08:13:58;14.33;;;12.93;;
1262;SDS011;62267;50.112;8.704;2023-06-10T08:16:25;12.40;;;11.23;;
1262;SDS011;62267;50.112;8.704;2023-06-10T08:18:52;13.03;;;12.03;;
1262;SDS011;62267;50.112;8.704;2023-06-10T08:21:21;12.87;;;11.77;;
1262;SDS011;62267;50.112;8.704;2023-06-10T08:23:52;12.90;;;11.90;;
1262;SDS011;62267;50.112;8.704;2023-06-10T08:26:20;13.13;;;12.03;;
1262;SDS011;62267;50.112;8.704;2023-06-10T08:28:47;14.30;;;13.00;;
1262;SDS011;62267;50.112;8.704;2023-06-10T08:31:14;12.97;;;11.70;;
1262;SDS011;62267;50.112;8.704;2023-06-10T08:33:42;13.13;;;12.00;;
1262;SDS011;62267;50.112;8.704;2023-06-10T08:36:09;11.90;;;10.80;;
1262;SDS011;62267;50.112;8.704;2023-06-10T08:38:37;13.70;;;12.60;;
1262;SDS011;62267;50.112;8.704;2023-06-10T08:41:05;14.80;;;13.47;;
1262;SDS011;62267;50.112;8.704;2023-06-10T08:46:01;12.37;;;11.17;;
1262;SDS011;62267;50.112;8.704;2023-06-10T08:48:29;13.13;;;12.03;;
1262;SDS011;62267;50.112;8.704;2023-06-10T08:50:59;13.70;;;12.60;;
1262;SDS011;62267;50.112;8.704;2023-06-10T08:53:26;13.60;;;12.03;;
1262;SDS011;62267;50.112;8.704;2023-06-10T08:55:56;13.10;;;12.00;;
1262;SDS011;62267;50.112;8.704;2023-06-10T08:58:26;12.60;;;11.60;;
1262;SDS011;62267;50.112;8.704;2023-06-10T09:00:54;12.67;;;11.57;;
1262;SDS011;62267;50.112;8.704;2023-06-10T09:03:24;12.30;;;11.37;;
1262;SDS011;62267;50.112;8.704;2023-06-10T09:05:52;11.93;;;11.00;;
1262;SDS011;62267;50.112;8.704;2023-06-10T09:08:20;16.57;;;12.20;;
1262;SDS011;62267;50.112;8.704;2023-06-10T09:10:47;11.40;;;10.30;;
1262;SDS011;62267;50.112;8.704;2023-06-10T09:13:15;11.70;;;10.60;;
1262;SDS011;62267;50.112;8.704;2023-06-10T09:15:45;13.00;;;11.90;;
1262;SDS011;62267;50.112;8.704;2023-06-10T09:18:15;11.97;;;11.07;;
1262;SDS011;62267;50.112;8.704;2023-06-10T09:20:43;12.67;;;11.67;;
1262;SDS011;62267;50.112;8.704;2023-06-10T09:23:11;11.77;;;10.60;;
1262;SDS011;62267;50.112;8.704;2023-06-10T09:25:39;11.97;;;11.07;;
1262;SDS011;62267;50.112;8.704;2023-06-10T09:28:12;12.23;;;11.27;;
1262;SDS011;62267;50.112;8.704;2023-06-10T09:30:42;12.20;;;11.20;;
1262;SDS011;62267;50.112;8.704;2023-06-10T09:33:12;13.30;;;12.20;;
1262;SDS011;62267;50.112;8.704;2023-06-10T09:35:50;11.60;;;10.60;;
1262;SDS011;62267;50.112;8.704;2023-06-10T09:38:19;11.97;;;10.93;;
1262;SDS011;62267;50.112;8.704;2023-06-10T09:40:51;13.03;;;11.93;;
1262;SDS011;62267;50.112;8.704;2023-06-10T09:43:19;13.03;;;11.90;;
1262;SDS011;62267;50.112;8.704;2023-06-10T09:45:49;12.57;;;11.57;;
1262;SDS011;62267;50.112;8.704;2023-06-10T09:48:21;12.53;;;11.43;;
1262;SDS011;62267;50.112;8.704;2023-06-10T09:50:52;11.80;;;10.90;;
1262;SDS011;62267;50.112;8.704;2023-06-10T09:53:20;13.07;;;11.93;;
1262;SDS011;62267;50.112;8.704;2023-06-10T09:55:47;11.30;;;10.50;;
1262;SDS011;62267;50.112;8.704;2023-06-10T09:58:16;12.80;;;11.80;;
1262;SDS011;62267;50.112;8.704;2023-06-10T10:00:43;11.80;;;10.80;;
1262;SDS011;62267;50.112;8.704;2023-06-10T10:03:11;12.37;;;11.17;;
1262;SDS011;62267;50.112;8.704;2023-06-10T10:05:49;12.20;;;11.20;;
1262;SDS011;62267;50.112;8.704;2023-06-10T10:08:19;12.87;;;11.87;;
1262;SDS011;62267;50.112;8.704;2023-06-10T10:10:46;11.50;;;10.60;;
1262;SDS011;62267;50.112;8.704;2023-06-10T10:13:15;10.43;;;9.63;;
1262;SDS011;62267;50.112;8.704;2023-06-10T10:15:42;12.63;;;11.57;;
1262;SDS011;62267;50.112;8.704;2023-06-10T10:18:11;11.57;;;10.37;;
1262;SDS011;62267;50.112;8.704;2023-06-10T10:20:46;11.77;;;10.67;;
1262;SDS011;62267;50.112;8.704;2023-06-10T10:23:18;12.83;;;11.67;;
1262;SDS011;62267;50.112;8.704;2023-06-10T10:25:49;11.90;;;10.90;;
1262;SDS011;62267;50.112;8.704;2023-06-10T10:28:20;11.53;;;10.63;;
1262;SDS011;62267;50.112;8.704;2023-06-10T10:30:49;11.10;;;10.17;;
1262;SDS011;62267;50.112;8.704;2023-06-10T10:33:18;11.27;;;10.27;;
1262;SDS011;62267;50.112;8.704;2023-06-10T10:35:47;10.27;;;9.43;;
1262;SDS011;62267;50.112;8.704;2023-06-10T10:38:15;11.27;;;10.20;;
1262;SDS011;62267;50.112;8.704;2023-06-10T10:40:43;10.73;;;9.87;;
1262;SDS011;62267;50.112;8.704;2023-06-10T10:43:14;12.50;;;11.40;;
1262;SDS011;62267;50.112;8.704;2023-06-10T10:45:46;10.20;;;9.33;;
1262;SDS011;62267;50.112;8.704;2023-06-10T10:48:13;11.73;;;10.63;;
1262;SDS011;62267;50.112;8.704;2023-06-10T10:50:41;10.80;;;9.80;;
1262;SDS011;62267;50.112;8.704;2023-06-10T10:53:09;15.50;;;10.90;;
1262;SDS011;62267;50.112;8.704;2023-06-10T10:55:36;10.37;;;9.57;;
1262;SDS011;62267;50.112;8.704;2023-06-10T10:58:05;11.30;;;10.30;;
1262;SDS011;62267;50.112;8.704;2023-06-10T11:00:33;10.17;;;9.43;;
1262;SDS011;62267;50.112;8.704;2023-06-10T11:05:37;11.30;;;10.47;;
1262;SDS011;62267;50.112;8.704;2023-06-10T11:08:05;10.97;;;10.13;;
1262;SDS011;62267;50.112;8.704;2023-06-10T11:10:40;10.33;;;9.23;;
1262;SDS011;62267;50.112;8.704;2023-06-10T11:13:13;10.73;;;9.80;;
1262;SDS011;62267;50.112;8.704;2023-06-10T11:15:44;12.07;;;10.40;;
1262;SDS011;62267;50.112;8.704;2023-06-10T11:18:14;12.60;;;11.40;;
1262;SDS011;62267;50.112;8.704;2023-06-10T11:31:25;12.60;;;10.83;;
1262;SDS011;62267;50.112;8.704;2023-06-10T11:33:53;11.30;;;10.40;;
1262;SDS011;62267;50.112;8.704;2023-06-10T11:36:21;11.17;;;9.50;;
1262;SDS011;62267;50.112;8.704;2023-06-10T11:38:49;10.70;;;8.57;;
1262;SDS011;62267;50.112;8.704;2023-06-10T11:41:17;10.23;;;9.43;;
1262;SDS011;62267;50.112;8.704;2023-06-10T11:43:45;10.67;;;9.37;;
1262;SDS011;62267;50.112;8.704;2023-06-10T11:46:14;10.77;;;9.77;;
1262;SDS011;62267;50.112;8.704;2023-06-10T11:48:54;10.20;;;9.40;;
1262;SDS011;62267;50.112;8.704;2023-06-10T11:51:23;10.03;;;9.20;;
1262;SDS011;62267;50.112;8.704;2023-06-10T11:53:52;10.10;;;9.30;;
1262;SDS011;62267;50.112;8.704;2023-06-10T11:56:20;10.20;;;9.33;;
1262;SDS011;62267;50.112;8.704;2023-06-10T11:58:55;9.70;;;8.90;;
1262;SDS011;62267;50.112;8.704;2023-06-10T12:01:24;11.07;;;9.40;;
1262;SDS011;62267;50.112;8.704;2023-06-10T12:04:05;9.77;;;8.87;;
1262;SDS011;62267;50.112;8.704;2023-06-10T12:06:43;10.23;;;9.33;;
1262;SDS011;62267;50.112;8.704;2023-06-10T12:09:26;10.87;;;9.70;;
1262;SDS011;62267;50.112;8.704;2023-06-10T12:11:58;10.27;;;9.47;;
1262;SDS011;62267;50.112;8.704;2023-06-10T12:17:14;10.97;;;9.97;;
1262;SDS011;62267;50.112;8.704;2023-06-10T12:19:42;9.87;;;8.97;;
1262;SDS011;62267;50.112;8.704;2023-06-10T12:22:10;11.73;;;10.47;;
1262;SDS011;62267;50.112;8.704;2023-06-10T12:24:44;10.53;;;9.60;;
1262;SDS011;62267;50.112;8.704;2023-06-10T12:27:12;10.17;;;9.37;;
1262;SDS011;62267;50.112;8.704;2023-06-10T12:29:40;34.80;;;20.40;;
1262;SDS011;62267;50.112;8.704;2023-06-10T12:32:22;31.23;;;17.17;;
1262;SDS011;62267;50.112;8.704;2023-06-10T12:35:05;18.23;;;14.10;;
1262;SDS011;62267;50.112;8.704;2023-06-10T12:37:35;10.27;;;9.37;;
1262;SDS011;62267;50.112;8.704;2023-06-10T12:40:08;16.97;;;13.37;;
1262;SDS011;62267;50.112;8.704;2023-06-10T12:42:36;21.90;;;11.87;;
1262;SDS011;62267;50.112;8.704;2023-06-10T12:45:04;13.30;;;10.60;;
1262;SDS011;62267;50.112;8.704;2023-06-10T12:47:38;15.90;;;10.40;;
1262;SDS011;62267;50.112;8.704;2023-06-10T12:50:06;10.00;;;9.10;;
1262;SDS011;62267;50.112;8.704;2023-06-10T12:52:34;10.57;;;9.50;;
1262;SDS011;62267;50.112;8.704;2023-06-10T12:55:03;11.00;;;9.77;;
1262;SDS011;62267;50.112;8.704;2023-06-10T12:57:31;10.90;;;9.80;;
1262;SDS011;62267;50.112;8.704;2023-06-10T12:59:59;10.17;;;9.17;;
1262;SDS011;62267;50.112;8.704;2023-06-10T13:02:32;9.90;;;9.03;;
1262;SDS011;62267;50.112;8.704;2023-06-10T13:04:59;11.23;;;10.30;;
1262;SDS011;62267;50.112;8.704;2023-06-10T13:07:29;10.27;;;9.47;;
1262;SDS011;62267;50.112;8.704;2023-06-10T13:09:57;10.00;;;9.30;;
1262;SDS011;62267;50.112;8.704;2023-06-10T13:12:25;9.70;;;9.00;;
1262;SDS011;62267;50.112;8.704;2023-06-10T13:15:11;10.10;;;9.30;;
1262;SDS011;62267;50.112;8.704;2023-06-10T13:17:39;9.60;;;8.80;;
1262;SDS011;62267;50.112;8.704;2023-06-10T13:20:07;9.23;;;8.50;;
1262;SDS011;62267;50.112;8.704;2023-06-10T13:22:35;9.80;;;9.10;;
1262;SDS011;62267;50.112;8.704;2023-06-10T13:25:03;8.97;;;8.37;;
1262;SDS011;62267;50.112;8.704;2023-06-10T13:27:31;9.40;;;8.60;;
1262;SDS011;62267;50.112;8.704;2023-06-10T13:29:59;8.70;;;8.10;;
1262;SDS011;62267;50.112;8.704;2023-06-10T13:32:27;9.23;;;8.53;;
1262;SDS011;62267;50.112;8.704;2023-06-10T13:34:54;9.93;;;8.90;;
1262;SDS011;62267;50.112;8.704;2023-06-10T13:37:21;8.80;;;8.20;;
1262;SDS011;62267;50.112;8.704;2023-06-10T13:39:49;10.43;;;9.53;;
1262;SDS011;62267;50.112;8.704;2023-06-10T13:42:17;10.63;;;9.53;;
1262;SDS011;62267;50.112;8.704;2023-06-10T13:44:45;10.20;;;9.30;;
1262;SDS011;62267;50.112;8.704;2023-06-10T13:47:13;9.07;;;8.37;;
1262;SDS011;62267;50.112;8.704;2023-06-10T13:49:43;9.27;;;8.57;;
1262;SDS011;62267;50.112;8.704;2023-06-10T13:52:12;8.50;;;7.77;;
1262;SDS011;62267;50.112;8.704;2023-06-10T13:54:40;8.20;;;7.60;;
1262;SDS011;62267;50.112;8.704;2023-06-10T13:57:07;8.50;;;7.70;;
1262;SDS011;62267;50.112;8.704;2023-06-10T13:59:36;7.80;;;7.13;;
1262;SDS011;62267;50.112;8.704;2023-06-10T14:02:04;7.63;;;7.13;;
1262;SDS011;62267;50.112;8.704;2023-06-10T14:04:31;10.23;;;9.47;;
1262;SDS011;62267;50.112;8.704;2023-06-10T14:06:59;9.30;;;8.57;;
1262;SDS011;62267;50.112;8.704;2023-06-10T14:09:26;8.13;;;7.37;;
1262;SDS011;62267;50.112;8.704;2023-06-10T14:11:55;9.37;;;8.47;;
1262;SDS011;62267;50.112;8.704;2023-06-10T14:14:22;9.43;;;8.73;;
1262;SDS011;62267;50.112;8.704;2023-06-10T14:16:49;7.90;;;7.30;;
1262;SDS011;62267;50.112;8.704;2023-06-10T14:19:17;8.07;;;7.50;;
1262;SDS011;62267;50.112;8.704;2023-06-10T14:21:44;9.03;;;8.20;;
1262;SDS011;62267;50.112;8.704;2023-06-10T14:24:11;8.33;;;7.73;;
1262;SDS011;62267;50.112;8.704;2023-06-10T14:26:41;11.13;;;10.20;;
1262;SDS011;62267;50.112;8.704;2023-06-10T14:29:09;8.10;;;7.40;;
1262;SDS011;62267;50.112;8.704;2023-06-10T14:31:36;7.37;;;6.80;;
1262;SDS011;62267;50.112;8.704;2023-06-10T14:34:04;7.03;;;6.40;;
1262;SDS011;62267;50.112;8.704;2023-06-10T14:36:34;7.47;;;6.87;;
1262;SDS011;62267;50.112;8.704;2023-06-10T14:39:02;7.80;;;7.00;;
1262;SDS011;62267;50.112;8.704;2023-06-10T14:41:30;7.20;;;6.60;;
1262;SDS011;62267;50.112;8.704;2023-06-10T14:43:59;7.40;;;6.90;;
1262;SDS011;62267;50.112;8.704;2023-06-10T14:46:28;7.50;;;6.90;;
1262;SDS011;62267;50.112;8.704;2023-06-10T14:48:56;7.10;;;6.60;;
1262;SDS011;62267;50.112;8.704;2023-06-10T14:51:25;7.60;;;6.80;;
1262;SDS011;62267;50.112;8.704;2023-06-10T14:53:52;7.20;;;6.70;;
1262;SDS011;62267;50.112;8.704;2023-06-10T14:56:20;8.27;;;7.57;;
1262;SDS011;62267;50.112;8.704;2023-06-10T14:58:47;8.40;;;7.70;;
1262;SDS011;62267;50.112;8.704;2023-06-10T15:01:15;8.87;;;8.07;;
1262;SDS011;62267;50.112;8.704;2023-06-10T15:03:42;7.27;;;6.77;;
1262;SDS011;62267;50.112;8.704;2023-06-10T15:06:13;8.17;;;7.47;;
1262;SDS011;62267;50.112;8.704;2023-06-10T15:08:43;8.33;;;7.60;;
1262;SDS011;62267;50.112;8.704;2023-06-10T15:11:11;7.97;;;7.20;;